createdAt,value
2022-12-24T00:00:24.625Z,6.03
2022-12-24T00:02:52.684Z,5.50
2022-12-24T00:05:20.643Z,5.50
2022-12-24T00:07:48.527Z,5.57
2022-12-24T00:10:17.876Z,5.57
2022-12-24T00:12:46.075Z,5.77
2022-12-24T00:15:14.001Z,5.57
2022-12-24T00:17:41.954Z,5.13
2022-12-24T00:20:11.015Z,5.90
2022-12-24T00:22:38.952Z,5.57
2022-12-24T00:25:07.731Z,5.90
2022-12-24T00:27:36.940Z,5.50
2022-12-24T00:30:05.748Z,6.27
2022-12-24T00:32:33.735Z,5.63
2022-12-24T00:35:01.588Z,6.20
2022-12-24T00:37:29.462Z,5.50
2022-12-24T00:39:57.379Z,5.83
2022-12-24T00:42:25.308Z,5.30
2022-12-24T00:44:54.529Z,5.63
2022-12-24T00:47:22.419Z,6.13
2022-12-24T00:49:50.302Z,5.80
2022-12-24T00:52:18.122Z,5.23
2022-12-24T00:54:45.991Z,6.00
2022-12-24T00:57:13.827Z,5.90
2022-12-24T00:59:41.689Z,6.17
2022-12-24T01:02:11.062Z,5.20
2022-12-24T01:04:56.686Z,5.27
2022-12-24T01:07:24.662Z,5.70
2022-12-24T01:09:52.511Z,5.60
2022-12-24T01:12:20.411Z,6.23
2022-12-24T01:14:48.359Z,5.57
2022-12-24T01:17:17.685Z,6.43
2022-12-24T01:19:45.610Z,5.40
2022-12-24T01:22:13.652Z,5.33
2022-12-24T01:24:42.267Z,5.70
2022-12-24T01:27:10.207Z,5.77
2022-12-24T01:29:38.182Z,6.10
2022-12-24T01:32:06.200Z,5.93
2022-12-24T01:34:36.252Z,5.80
2022-12-24T01:37:04.151Z,5.53
2022-12-24T01:39:32.131Z,5.37
2022-12-24T01:42:17.463Z,5.33
2022-12-24T01:44:52.396Z,5.60
2022-12-24T01:47:23.400Z,5.23
2022-12-24T01:49:55.860Z,6.20
2022-12-24T01:52:27.703Z,5.73
2022-12-24T01:54:59.630Z,6.40
2022-12-24T01:57:31.059Z,5.40
2022-12-24T02:00:06.918Z,5.93
2022-12-24T02:02:35.982Z,5.67
2022-12-24T02:05:09.549Z,5.27
2022-12-24T02:07:38.323Z,5.80
2022-12-24T02:10:11.332Z,5.57
2022-12-24T02:12:41.090Z,5.70
2022-12-24T02:15:12.820Z,6.50
2022-12-24T02:17:51.041Z,5.63
2022-12-24T02:20:50.587Z,5.60
2022-12-24T02:23:50.888Z,5.60
2022-12-24T02:26:35.374Z,5.87
2022-12-24T02:29:23.675Z,6.00
2022-12-24T02:32:00.058Z,5.73
2022-12-24T02:34:33.349Z,5.13
2022-12-24T02:37:05.839Z,5.10
2022-12-24T02:39:40.905Z,6.00
2022-12-24T02:42:12.891Z,5.77
2022-12-24T02:44:46.096Z,5.50
2022-12-24T02:47:17.795Z,4.97
2022-12-24T02:49:46.976Z,5.77
2022-12-24T02:52:30.321Z,5.43
2022-12-24T02:54:59.838Z,5.10
2022-12-24T02:57:36.441Z,4.60
2022-12-24T03:00:07.088Z,4.77
2022-12-24T03:02:51.749Z,5.30
2022-12-24T03:05:27.563Z,4.57
2022-12-24T03:08:02.370Z,4.50
2022-12-24T03:10:35.693Z,4.37
2022-12-24T03:15:54.469Z,4.13
2022-12-24T03:18:26.428Z,4.00
2022-12-24T03:20:58.724Z,4.30
2022-12-24T03:23:26.695Z,4.20
2022-12-24T03:25:55.076Z,4.20
2022-12-24T03:28:28.309Z,3.60
2022-12-24T03:30:56.527Z,3.80
2022-12-24T03:33:25.757Z,4.00
2022-12-24T03:35:53.623Z,3.97
2022-12-24T03:38:21.534Z,3.80
2022-12-24T03:40:49.592Z,4.00
2022-12-24T03:43:17.547Z,3.67
2022-12-24T03:45:45.489Z,4.17
2022-12-24T03:48:13.463Z,4.53
2022-12-24T03:50:42.752Z,4.60
2022-12-24T03:53:10.680Z,4.40
2022-12-24T03:55:40.112Z,4.13
2022-12-24T03:58:08.243Z,3.83
2022-12-24T04:00:36.238Z,4.53
2022-12-24T04:03:04.272Z,4.37
2022-12-24T04:05:32.195Z,4.00
2022-12-24T04:08:01.444Z,4.43
2022-12-24T04:10:29.346Z,3.87
2022-12-24T04:12:57.287Z,4.33
2022-12-24T04:15:25.193Z,4.10
2022-12-24T04:17:53.038Z,4.47
2022-12-24T04:20:20.933Z,4.30
2022-12-24T04:22:48.817Z,4.50
2022-12-24T04:25:18.200Z,4.17
2022-12-24T04:27:46.049Z,4.50
2022-12-24T04:30:14.272Z,5.07
2022-12-24T04:32:42.204Z,4.70
2022-12-24T04:35:10.743Z,5.03
2022-12-24T04:37:38.708Z,4.70
2022-12-24T04:40:07.776Z,5.00
2022-12-24T04:42:37.049Z,4.80
2022-12-24T04:45:05.460Z,5.43
2022-12-24T04:47:33.363Z,4.13
2022-12-24T04:50:01.555Z,5.17
2022-12-24T04:52:29.484Z,4.97
2022-12-24T04:54:57.401Z,4.87
2022-12-24T04:57:25.281Z,3.83
2022-12-24T04:59:54.523Z,4.67
2022-12-24T05:02:22.455Z,4.57
2022-12-24T05:04:50.559Z,4.43
2022-12-24T05:07:18.435Z,4.17
2022-12-24T05:09:46.349Z,4.23
2022-12-24T05:12:14.203Z,4.63
2022-12-24T05:14:43.672Z,4.27
2022-12-24T05:17:12.987Z,4.20
2022-12-24T05:19:40.895Z,4.53
2022-12-24T05:22:26.076Z,4.37
2022-12-24T05:25:11.408Z,5.70
2022-12-24T05:27:39.372Z,4.70
2022-12-24T05:30:08.788Z,5.20
2022-12-24T05:32:38.138Z,4.17
2022-12-24T05:35:06.521Z,5.10
2022-12-24T05:37:34.419Z,4.87
2022-12-24T05:40:02.268Z,4.20
2022-12-24T05:42:30.232Z,4.47
2022-12-24T05:44:58.140Z,3.97
2022-12-24T05:47:26.097Z,4.80
2022-12-24T05:49:55.349Z,4.57
2022-12-24T05:52:23.219Z,4.67
2022-12-24T05:54:51.080Z,5.43
2022-12-24T05:57:18.922Z,4.40
2022-12-24T05:59:48.700Z,4.57
2022-12-24T06:02:16.633Z,4.73
2022-12-24T06:04:44.620Z,4.47
2022-12-24T06:07:13.976Z,5.23
2022-12-24T06:09:41.864Z,4.47
2022-12-24T06:12:09.742Z,4.87
2022-12-24T06:14:37.663Z,4.83
2022-12-24T06:17:05.531Z,5.30
2022-12-24T06:19:33.498Z,5.23
2022-12-24T06:22:01.342Z,5.10
2022-12-24T06:24:30.547Z,5.70
2022-12-24T06:26:58.469Z,5.90
2022-12-24T06:29:27.436Z,5.20
2022-12-24T06:31:55.624Z,5.27
2022-12-24T06:34:23.583Z,4.93
2022-12-24T06:36:51.488Z,5.43
2022-12-24T06:39:19.347Z,5.03
2022-12-24T06:41:48.573Z,5.43
2022-12-24T06:44:16.460Z,5.43
2022-12-24T06:46:44.436Z,5.10
2022-12-24T06:49:12.476Z,5.50
2022-12-24T06:51:40.341Z,5.73
2022-12-24T06:54:08.287Z,6.63
2022-12-24T06:56:36.267Z,5.13
2022-12-24T06:59:05.829Z,5.73
2022-12-24T07:01:33.940Z,5.83
2022-12-24T07:04:02.082Z,5.30
2022-12-24T07:06:31.082Z,5.27
2022-12-24T07:08:58.966Z,5.20
2022-12-24T07:11:27.456Z,6.30
2022-12-24T07:13:55.381Z,5.83
2022-12-24T07:16:24.761Z,5.10
2022-12-24T07:18:53.070Z,6.43
2022-12-24T07:21:20.980Z,5.80
2022-12-24T07:23:48.929Z,5.53
2022-12-24T07:26:16.779Z,5.67
2022-12-24T07:28:44.756Z,5.57
2022-12-24T07:31:12.711Z,5.37
2022-12-24T07:33:42.037Z,5.23
2022-12-24T07:36:14.906Z,5.07
2022-12-24T07:38:43.030Z,5.03
2022-12-24T07:41:10.903Z,5.97
2022-12-24T07:43:38.847Z,6.33
2022-12-24T07:46:07.251Z,4.83
2022-12-24T07:48:35.353Z,4.97
2022-12-24T07:51:05.319Z,5.27
2022-12-24T07:53:33.555Z,5.20
2022-12-24T07:56:03.358Z,5.10
2022-12-24T07:58:34.072Z,5.30
2022-12-24T08:01:02.479Z,5.43
2022-12-24T08:03:30.418Z,4.97
2022-12-24T08:05:58.511Z,6.27
2022-12-24T08:08:28.320Z,5.77
2022-12-24T08:11:01.821Z,5.40
2022-12-24T08:13:30.066Z,4.80
2022-12-24T08:15:58.017Z,5.10
2022-12-24T08:18:26.355Z,5.23
2022-12-24T08:20:54.353Z,5.70
2022-12-24T08:23:22.270Z,4.47
2022-12-24T08:25:51.741Z,4.77
2022-12-24T08:28:21.401Z,5.90
2022-12-24T08:30:50.364Z,5.37
2022-12-24T08:33:18.462Z,5.33
2022-12-24T08:35:49.163Z,5.97
2022-12-24T08:38:17.067Z,5.73
2022-12-24T08:40:47.189Z,6.07
2022-12-24T08:43:17.127Z,4.70
2022-12-24T08:45:45.264Z,5.27
2022-12-24T08:48:13.410Z,5.90
2022-12-24T08:50:42.045Z,5.97
2022-12-24T08:53:10.145Z,5.40
2022-12-24T08:55:38.310Z,6.00
2022-12-24T08:58:06.323Z,8.70
2022-12-24T09:00:35.613Z,10.57
2022-12-24T09:03:03.627Z,6.53
2022-12-24T09:05:31.617Z,8.07
2022-12-24T09:07:59.745Z,6.33
2022-12-24T09:10:27.613Z,7.10
2022-12-24T09:12:55.517Z,6.80
2022-12-24T09:15:23.391Z,5.07
2022-12-24T09:17:52.619Z,9.13
2022-12-24T09:20:20.644Z,6.20
2022-12-24T09:22:48.589Z,5.63
2022-12-24T09:25:16.550Z,5.73
2022-12-24T09:27:44.475Z,6.03
2022-12-24T09:30:13.610Z,7.57
2022-12-24T09:32:41.523Z,7.80
2022-12-24T09:35:11.117Z,25.63
2022-12-24T09:37:39.096Z,13.10
2022-12-24T09:40:08.292Z,6.30
2022-12-24T09:42:50.514Z,6.97
2022-12-24T09:45:23.977Z,7.93
2022-12-24T09:47:55.256Z,7.03
2022-12-24T09:50:35.741Z,13.67
2022-12-24T09:53:08.617Z,5.90
2022-12-24T09:55:41.751Z,5.70
2022-12-24T09:58:21.306Z,6.10
2022-12-24T10:00:50.348Z,5.77
2022-12-24T10:03:19.361Z,5.70
2022-12-24T10:05:57.542Z,6.03
2022-12-24T10:08:35.960Z,7.23
2022-12-24T10:11:12.716Z,9.30
2022-12-24T10:13:57.588Z,7.17
2022-12-24T10:16:32.838Z,5.80
2022-12-24T10:19:06.926Z,5.50
2022-12-24T10:21:44.980Z,5.33
2022-12-24T10:24:20.518Z,6.10
2022-12-24T10:26:54.411Z,6.37
2022-12-24T10:29:25.830Z,5.97
2022-12-24T10:31:57.748Z,7.00
2022-12-24T10:34:31.871Z,6.00
2022-12-24T10:37:04.210Z,6.23
2022-12-24T10:39:32.206Z,6.20
2022-12-24T10:42:01.545Z,6.00
2022-12-24T10:44:32.581Z,5.33
2022-12-24T10:47:00.511Z,5.70
2022-12-24T10:49:34.975Z,6.13
2022-12-24T10:52:08.488Z,5.80
2022-12-24T10:54:39.818Z,6.90
2022-12-24T10:57:26.358Z,7.20
2022-12-24T10:59:56.456Z,6.10
2022-12-24T11:02:30.449Z,6.33
2022-12-24T11:05:00.303Z,6.07
2022-12-24T11:07:31.231Z,6.07
2022-12-24T11:10:00.626Z,5.50
2022-12-24T11:12:32.098Z,5.53
2022-12-24T11:15:09.056Z,6.97
2022-12-24T11:17:37.219Z,5.90
2022-12-24T11:20:06.417Z,6.87
2022-12-24T11:22:35.769Z,7.40
2022-12-24T11:25:06.868Z,7.70
2022-12-24T11:27:44.391Z,5.93
2022-12-24T11:30:27.916Z,7.07
2022-12-24T11:33:21.574Z,6.73
2022-12-24T11:36:05.749Z,6.20
2022-12-24T11:38:36.498Z,6.67
2022-12-24T11:41:07.976Z,6.77
2022-12-24T11:43:46.947Z,6.13
2022-12-24T11:46:38.322Z,6.00
2022-12-24T11:49:18.658Z,6.20
2022-12-24T11:52:11.669Z,6.43
2022-12-24T11:54:46.646Z,7.00
2022-12-24T11:57:16.971Z,5.93
2022-12-24T11:59:48.371Z,6.27
2022-12-24T12:02:23.157Z,6.03
2022-12-24T12:04:55.082Z,6.13
2022-12-24T12:07:26.474Z,6.83
2022-12-24T12:10:01.695Z,6.80
2022-12-24T12:12:33.056Z,6.70
2022-12-24T12:15:04.942Z,7.17
2022-12-24T12:17:37.194Z,6.63
2022-12-24T12:20:12.224Z,6.50
2022-12-24T12:22:47.785Z,6.73
2022-12-24T12:25:24.493Z,6.23
2022-12-24T12:27:56.531Z,6.07
2022-12-24T12:30:25.388Z,6.93
2022-12-24T12:33:00.076Z,6.80
2022-12-24T12:35:32.865Z,6.93
2022-12-24T12:38:04.942Z,6.77
2022-12-24T12:41:02.469Z,5.97
2022-12-24T12:43:42.252Z,6.60
2022-12-24T12:46:21.775Z,6.83
2022-12-24T12:49:10.552Z,5.80
2022-12-24T12:51:48.123Z,5.80
2022-12-24T12:54:33.113Z,6.03
2022-12-24T12:57:09.501Z,5.90
2022-12-24T12:59:42.405Z,6.50
2022-12-24T13:02:35.537Z,5.97
2022-12-24T13:05:22.384Z,6.27
2022-12-24T13:08:16.233Z,6.00
2022-12-24T13:11:02.915Z,5.80
2022-12-24T13:14:08.893Z,5.40
2022-12-24T13:17:01.037Z,5.43
2022-12-24T13:19:44.984Z,6.23
2022-12-24T13:22:17.116Z,6.10
2022-12-24T13:24:52.260Z,5.33
2022-12-24T13:27:24.544Z,5.97
2022-12-24T13:29:56.873Z,5.67
2022-12-24T13:32:55.380Z,5.50
2022-12-24T13:35:58.600Z,6.03
2022-12-24T13:38:42.201Z,5.90
2022-12-24T13:41:53.190Z,5.70
2022-12-24T13:44:33.591Z,5.30
2022-12-24T13:47:31.914Z,4.90
2022-12-24T13:50:15.127Z,5.43
2022-12-24T13:52:53.203Z,4.93
2022-12-24T13:55:21.511Z,5.27
2022-12-24T13:57:58.822Z,5.60
2022-12-24T14:00:40.285Z,4.93
2022-12-24T14:03:22.765Z,5.57
2022-12-24T14:05:54.612Z,5.10
2022-12-24T14:08:42.359Z,5.13
2022-12-24T14:11:13.370Z,5.47
2022-12-24T14:14:27.453Z,5.17
2022-12-24T14:16:57.451Z,5.00
2022-12-24T14:19:35.380Z,5.23
2022-12-24T14:22:15.453Z,5.20
2022-12-24T14:24:45.723Z,5.70
2022-12-24T14:27:18.167Z,5.50
2022-12-24T14:29:51.669Z,5.57
2022-12-24T14:32:19.721Z,5.10
2022-12-24T14:35:05.458Z,5.40
2022-12-24T14:37:34.940Z,5.03
2022-12-24T14:40:03.416Z,4.80
2022-12-24T14:42:40.090Z,4.77
2022-12-24T14:45:20.486Z,4.87
2022-12-24T14:47:58.219Z,5.20
2022-12-24T14:51:05.657Z,5.37
2022-12-24T14:53:49.154Z,6.13
2022-12-24T14:56:19.981Z,5.03
2022-12-24T14:58:48.600Z,4.63
2022-12-24T15:01:23.509Z,5.97
2022-12-24T15:04:06.114Z,5.57
2022-12-24T15:06:38.058Z,5.60
2022-12-24T15:09:06.958Z,6.23
2022-12-24T15:11:35.002Z,5.60
2022-12-24T15:14:03.267Z,6.40
2022-12-24T15:16:34.285Z,6.43
2022-12-24T15:19:06.287Z,6.57
2022-12-24T15:21:41.255Z,5.90
2022-12-24T15:24:25.385Z,5.77
2022-12-24T15:26:53.458Z,5.70
2022-12-24T15:29:24.606Z,6.53
2022-12-24T15:31:56.311Z,7.43
2022-12-24T15:34:29.245Z,7.43
2022-12-24T15:37:15.455Z,7.83
2022-12-24T15:39:43.831Z,7.27
2022-12-24T15:42:18.635Z,7.13
2022-12-24T15:44:56.863Z,7.40
2022-12-24T15:47:29.920Z,8.03
2022-12-24T15:49:58.113Z,7.33
2022-12-24T15:52:28.111Z,7.43
2022-12-24T15:54:58.334Z,7.43
2022-12-24T15:57:31.413Z,7.23
2022-12-24T16:00:00.826Z,7.27
2022-12-24T16:02:41.223Z,6.47
2022-12-24T16:05:34.043Z,7.60
2022-12-24T16:08:08.794Z,8.03
2022-12-24T16:10:39.842Z,7.10
2022-12-24T16:13:17.190Z,8.23
2022-12-24T16:15:49.631Z,9.00
2022-12-24T16:18:20.713Z,7.83
2022-12-24T16:20:51.037Z,7.77
2022-12-24T16:23:22.328Z,8.10
2022-12-24T16:25:50.705Z,7.73
2022-12-24T16:28:22.663Z,7.73
2022-12-24T16:30:51.301Z,7.63
2022-12-24T16:33:21.681Z,8.77
2022-12-24T16:35:49.865Z,8.30
2022-12-24T16:38:17.927Z,9.40
2022-12-24T16:40:47.318Z,13.13
2022-12-24T16:43:32.963Z,13.97
2022-12-24T16:46:03.769Z,13.03
2022-12-24T16:48:33.994Z,11.57
2022-12-24T16:51:01.933Z,10.33
2022-12-24T16:53:29.800Z,9.17
2022-12-24T16:55:59.058Z,10.57
2022-12-24T16:58:26.940Z,10.90
2022-12-24T17:00:54.870Z,11.20
2022-12-24T17:03:23.295Z,12.23
2022-12-24T17:05:51.451Z,15.47
2022-12-24T17:08:19.319Z,14.43
2022-12-24T17:10:52.091Z,16.27
2022-12-24T17:13:21.380Z,18.50
2022-12-24T17:15:49.448Z,19.30
2022-12-24T17:18:18.168Z,18.30
2022-12-24T17:20:46.057Z,18.03
2022-12-24T17:23:13.918Z,18.43
2022-12-24T17:25:41.783Z,17.53
2022-12-24T17:28:09.672Z,16.90
2022-12-24T17:30:40.573Z,15.87
2022-12-24T17:33:14.286Z,16.67
2022-12-24T17:35:43.706Z,14.47
2022-12-24T17:38:11.646Z,13.13
2022-12-24T17:40:39.645Z,13.80
2022-12-24T17:43:07.521Z,14.57
2022-12-24T17:45:35.425Z,12.10
2022-12-24T17:48:05.081Z,11.13
2022-12-24T17:50:33.120Z,11.53
2022-12-24T17:53:01.070Z,10.50
2022-12-24T17:55:28.970Z,11.90
2022-12-24T17:57:56.894Z,12.10
2022-12-24T18:00:29.419Z,11.27
2022-12-24T18:03:00.761Z,11.00
2022-12-24T18:05:30.154Z,11.13
2022-12-24T18:07:58.057Z,10.57
2022-12-24T18:10:26.000Z,11.77
2022-12-24T18:12:53.932Z,12.03
2022-12-24T18:15:22.366Z,11.67
2022-12-24T18:17:52.852Z,12.70
2022-12-24T18:20:21.128Z,12.60
2022-12-24T18:22:50.571Z,13.60
2022-12-24T18:25:20.055Z,13.50
2022-12-24T18:27:48.371Z,13.87
2022-12-24T18:30:20.509Z,13.03
2022-12-24T18:32:52.263Z,12.73
2022-12-24T18:35:21.693Z,13.27
2022-12-24T18:37:51.024Z,14.33
2022-12-24T18:40:20.532Z,13.67
2022-12-24T18:42:48.556Z,14.13
2022-12-24T18:45:16.553Z,13.83
2022-12-24T18:47:44.507Z,13.47
2022-12-24T18:50:12.452Z,12.70
2022-12-24T18:52:40.324Z,12.77
2022-12-24T18:55:10.771Z,12.40
2022-12-24T18:57:38.814Z,12.50
2022-12-24T19:00:08.074Z,12.93
2022-12-24T19:02:36.084Z,11.80
2022-12-24T19:05:04.159Z,12.10
2022-12-24T19:07:32.063Z,12.60
2022-12-24T19:09:59.952Z,12.57
2022-12-24T19:12:29.243Z,11.47
2022-12-24T19:14:57.812Z,11.33
2022-12-24T19:17:25.723Z,12.50
2022-12-24T19:19:53.668Z,12.17
2022-12-24T19:22:21.597Z,12.43
2022-12-24T19:24:51.195Z,11.20
2022-12-24T19:27:19.140Z,11.73
2022-12-24T19:29:48.349Z,11.80
2022-12-24T19:32:16.333Z,12.13
2022-12-24T19:34:44.221Z,11.90
2022-12-24T19:37:12.356Z,11.13
2022-12-24T19:39:40.353Z,11.40
2022-12-24T19:42:08.265Z,11.07
2022-12-24T19:44:36.220Z,10.10
2022-12-24T19:47:05.520Z,11.30
2022-12-24T19:49:33.477Z,11.27
2022-12-24T19:52:01.400Z,10.90
2022-12-24T19:54:29.281Z,13.13
2022-12-24T19:56:57.167Z,11.87
2022-12-24T19:59:25.057Z,11.90
2022-12-24T20:01:54.149Z,12.30
2022-12-24T20:04:23.532Z,12.50
2022-12-24T20:06:57.827Z,13.10
2022-12-24T20:09:28.880Z,12.60
2022-12-24T20:11:56.811Z,12.83
2022-12-24T20:14:24.776Z,12.50
2022-12-24T20:16:53.432Z,12.07
2022-12-24T20:19:22.704Z,11.80
2022-12-24T20:21:50.651Z,11.03
2022-12-24T20:24:18.789Z,10.63
2022-12-24T20:26:46.689Z,11.07
2022-12-24T20:29:14.650Z,11.47
2022-12-24T20:31:42.788Z,12.23
2022-12-24T20:34:12.008Z,12.07
2022-12-24T20:36:41.246Z,13.03
2022-12-24T20:39:09.124Z,12.80
2022-12-24T20:41:37.377Z,12.23
2022-12-24T20:44:05.515Z,11.80
2022-12-24T20:46:33.535Z,11.97
2022-12-24T20:49:01.492Z,11.30
2022-12-24T20:51:29.986Z,12.13
2022-12-24T20:54:01.017Z,12.00
2022-12-24T20:56:30.681Z,12.07
2022-12-24T20:59:00.526Z,12.30
2022-12-24T21:01:29.425Z,12.57
2022-12-24T21:04:00.184Z,11.50
2022-12-24T21:06:28.214Z,11.70
2022-12-24T21:08:56.270Z,12.20
2022-12-24T21:11:43.518Z,11.87
2022-12-24T21:14:12.023Z,11.83
2022-12-24T21:16:41.090Z,11.87
2022-12-24T21:19:10.600Z,11.90
2022-12-24T21:21:38.678Z,10.43
2022-12-24T21:24:07.480Z,11.00
2022-12-24T21:26:36.950Z,10.93
2022-12-24T21:29:06.629Z,10.67
2022-12-24T21:31:34.645Z,10.17
2022-12-24T21:34:03.453Z,9.83
2022-12-24T21:36:31.647Z,9.40
2022-12-24T21:38:59.670Z,9.17
2022-12-24T21:41:27.969Z,10.60
2022-12-24T21:43:57.488Z,9.57
2022-12-24T21:46:27.061Z,10.87
2022-12-24T21:49:14.091Z,10.27
2022-12-24T21:51:44.009Z,9.43
2022-12-24T21:54:31.484Z,8.80
2022-12-24T21:57:18.762Z,9.63
2022-12-24T21:59:50.417Z,9.83
2022-12-24T22:02:19.251Z,9.77
2022-12-24T22:04:47.605Z,9.40
2022-12-24T22:07:39.236Z,9.13
2022-12-24T22:10:25.864Z,8.70
2022-12-24T22:12:53.990Z,8.73
2022-12-24T22:15:23.520Z,8.23
2022-12-24T22:17:51.483Z,9.87
2022-12-24T22:20:19.354Z,8.80
2022-12-24T22:22:48.522Z,9.00
2022-12-24T22:25:16.757Z,8.57
2022-12-24T22:27:45.131Z,8.43
2022-12-24T22:30:13.734Z,8.53
2022-12-24T22:32:42.981Z,8.67
2022-12-24T22:35:11.886Z,8.53
2022-12-24T22:37:39.870Z,8.03
2022-12-24T22:40:09.717Z,7.83
2022-12-24T22:42:37.928Z,7.93
2022-12-24T22:45:06.879Z,7.87
2022-12-24T22:47:35.714Z,7.90
2022-12-24T22:50:05.475Z,8.30
2022-12-24T22:52:34.488Z,8.40
2022-12-24T22:55:02.810Z,8.70
2022-12-24T22:57:30.681Z,8.90
2022-12-24T22:59:58.619Z,8.20
2022-12-24T23:02:28.767Z,7.80
2022-12-24T23:04:57.715Z,7.03
2022-12-24T23:07:26.964Z,7.80
2022-12-24T23:09:54.950Z,7.27
2022-12-24T23:12:37.035Z,6.80
2022-12-24T23:15:05.489Z,7.73
2022-12-24T23:17:33.357Z,6.70
2022-12-24T23:20:03.049Z,7.70
2022-12-24T23:22:32.324Z,6.97
2022-12-24T23:25:00.476Z,7.37
2022-12-24T23:27:28.379Z,6.40
2022-12-24T23:29:56.405Z,7.23
2022-12-24T23:32:24.359Z,6.53
2022-12-24T23:34:52.236Z,6.90
2022-12-24T23:37:20.126Z,6.53
2022-12-24T23:39:49.311Z,6.57
2022-12-24T23:42:17.307Z,6.50
2022-12-24T23:44:45.164Z,6.00
2022-12-24T23:47:13.124Z,5.33
2022-12-24T23:49:41.049Z,5.23
2022-12-24T23:52:08.919Z,6.13
2022-12-24T23:54:36.897Z,5.30
2022-12-24T23:57:06.146Z,5.57
2022-12-24T23:59:34.449Z,5.73
